Archival Weather

Aeroparque Jorge Newbery

Buenos Aires, Argentina (SABE)

Report from: Sunday, March 19, 2023 5:18 PM -03
Current time: Wednesday, May 29, 2024 6:30 AM -03

Current weather – Weather history – Daily summaries
Weather forecast

Present weatherLight thunderstorm with rain
Temperature26.0°C (78.8°F)
Dew point22.0°C (71.6°F)
Winds 12 kts (6.2 m/s, 13.8 mph) North-Northwest (340°)
Visibility5 mi. (8 km)
Clouds Few clouds 2,000 ft. (610 m)
Few clouds with cumulonimbus 4,500 ft. (1,372 m)
Scattered clouds 8,000 ft. (2,438 m)
Altimeter29.83 in.Hg (1010 mB)
Relative humidity79 %
Density altitude1,736 ft. (529 m)
Remarks No significant changes expected in the next two hours
Special weather observation
Flight conditions Marginal Visual Meteorological Conditions
Raw dataSPECI SABE 192018Z 34012KT 8000 -TSRA FEW020 FEW045CB SCT080 26/22 Q1010 NOSIG
An error has occurred. This application may no longer respond until reloaded. Reload 🗙